Archival Weather

Alykel

Alykel, Russia (UOOO)

Report from: Tuesday, November 21, 2023 12:00 AM UTC
Current time: Friday, July 19, 2024 1:46 AM UTC

Current weather – Weather history – Daily summaries
Weather forecast

Temperature-29.0°C (-20.2°F)
Wind chill-38.3°C (-37.0°F)
Dew point-32.0°C (-25.6°F)
Winds 5.8 kts (3 m/s, 6.7 mph) South (170°)
Visibility3.7 mi. (6 km)
Clouds Scattered clouds 4,200 ft. (1,280 m)
Altimeter30.09 in.Hg (1019 mB)
Precip. events QF 11:28 AM
Relative humidity75 %
Density altitude-5,950 ft. (-1,814 m)
Remarks No significant changes expected in the next two hours
Flight conditions Marginal Visual Meteorological Conditions
Raw dataUOOO 210000Z 17003MPS 6000 SCT042 M29/M32 Q1019 R19/35//60 NOSIG RMK QFE748/0998
An error has occurred. This application may no longer respond until reloaded. Reload 🗙